createdAt,value
2022-08-17T00:02:25.917Z,96343.34
2022-08-17T00:04:53.980Z,96342.34
2022-08-17T00:07:20.502Z,96327.56
2022-08-17T00:09:47.118Z,96328.78
2022-08-17T00:12:34.866Z,96326.22
2022-08-17T00:15:00.030Z,96324.50
2022-08-17T00:17:26.775Z,96320.47
2022-08-17T00:19:53.318Z,96317.53
2022-08-17T00:22:35.299Z,96322.03
2022-08-17T00:25:07.357Z,96331.28
2022-08-17T00:27:34.691Z,96327.72
2022-08-17T00:30:01.398Z,96329.09
2022-08-17T00:33:16.083Z,96323.47
2022-08-17T00:35:18.264Z,96326.69
2022-08-17T00:37:44.838Z,96323.06
2022-08-17T00:40:14.172Z,96316.09
2022-08-17T00:42:42.116Z,96319.25
2022-08-17T00:45:11.570Z,96317.81
2022-08-17T00:47:38.199Z,96311.72
2022-08-17T00:50:05.472Z,96306.47
2022-08-17T00:52:37.389Z,96297.88
2022-08-17T00:55:06.106Z,96304.25
2022-08-17T00:57:42.391Z,96308.47
2022-08-17T01:00:16.901Z,96320.19
2022-08-17T01:02:47.623Z,96321.16
2022-08-17T01:05:20.760Z,96319.31
2022-08-17T01:07:50.615Z,96312.81
2022-08-17T01:11:00.476Z,96315.13
2022-08-17T01:13:10.680Z,96309.91
2022-08-17T01:15:41.354Z,96309.44
2022-08-17T01:18:13.609Z,96317.19
2022-08-17T01:20:57.644Z,96311.09
2022-08-17T01:23:26.006Z,96310.38
2022-08-17T01:25:56.674Z,96309.31
2022-08-17T01:28:53.170Z,96302.41
2022-08-17T01:31:13.195Z,96291.53
2022-08-17T01:33:39.589Z,96294.81
2022-08-17T01:36:07.853Z,96300.69
2022-08-17T01:38:36.454Z,96300.75
2022-08-17T01:41:08.122Z,96301.56
2022-08-17T01:43:43.520Z,96300.81
2022-08-17T01:46:15.694Z,96300.03
2022-08-17T01:48:42.992Z,96306.13
2022-08-17T01:51:09.533Z,96305.56
2022-08-17T01:53:42.273Z,96305.03
2022-08-17T01:56:12.218Z,96307.22
2022-08-17T01:58:41.594Z,96296.09
2022-08-17T02:01:10.558Z,96299.22
2022-08-17T02:03:38.534Z,96301.63
2022-08-17T02:06:06.263Z,96295.63
2022-08-17T02:09:01.539Z,96287.72
2022-08-17T02:11:30.934Z,96287.72
2022-08-17T02:14:03.202Z,96289.13
2022-08-17T02:16:36.773Z,96282.03
2022-08-17T02:19:12.130Z,96285.47
2022-08-17T02:21:39.987Z,96291.00
2022-08-17T02:24:13.399Z,96288.41
2022-08-17T02:26:39.977Z,96291.91
2022-08-17T02:29:07.261Z,96282.41
2022-08-17T02:31:35.586Z,96279.97
2022-08-17T02:34:03.659Z,96278.69
2022-08-17T02:36:34.982Z,96275.84
2022-08-17T02:39:04.704Z,96280.34
2022-08-17T02:41:31.827Z,96276.09
2022-08-17T02:43:58.666Z,96280.38
2022-08-17T02:46:25.564Z,96277.44
2022-08-17T02:48:52.216Z,96280.38
2022-08-17T02:51:18.755Z,96274.63
2022-08-17T02:53:45.297Z,96265.63
2022-08-17T02:56:11.766Z,96264.53
2022-08-17T02:58:38.457Z,96266.63
2022-08-17T03:01:05.933Z,96270.56
2022-08-17T03:03:33.145Z,96280.16
2022-08-17T03:05:59.656Z,96270.13
2022-08-17T03:08:27.221Z,96273.50
2022-08-17T03:10:53.773Z,96272.72
2022-08-17T03:13:20.673Z,96268.53
2022-08-17T03:15:48.448Z,96272.53
2022-08-17T03:18:24.158Z,96270.38
2022-08-17T03:20:52.795Z,96271.97
2022-08-17T03:23:23.829Z,96265.13
2022-08-17T03:25:52.836Z,96262.00
2022-08-17T03:28:19.688Z,96266.53
2022-08-17T03:30:46.208Z,96264.16
2022-08-17T03:33:13.724Z,96262.84
2022-08-17T03:35:41.284Z,96264.75
2022-08-17T03:38:10.520Z,96264.19
2022-08-17T03:40:57.810Z,96282.16
2022-08-17T03:43:25.398Z,96284.09
2022-08-17T03:46:27.325Z,96285.34
2022-08-17T03:49:14.527Z,96285.16
2022-08-17T03:51:59.721Z,96290.19
2022-08-17T03:54:44.958Z,96293.63
2022-08-17T03:57:12.518Z,96291.44
2022-08-17T03:59:39.226Z,96277.97
2022-08-17T04:02:09.118Z,96287.41
2022-08-17T04:04:37.009Z,96289.78
2022-08-17T04:07:05.112Z,96286.91
2022-08-17T04:09:31.815Z,96282.66
2022-08-17T04:12:04.549Z,96280.22
2022-08-17T04:14:36.690Z,96273.56
2022-08-17T04:17:18.082Z,96276.75
2022-08-17T04:19:44.964Z,96288.91
2022-08-17T04:22:11.505Z,96276.19
2022-08-17T04:24:58.747Z,96284.53
2022-08-17T04:27:25.551Z,96289.81
2022-08-17T04:29:54.754Z,96290.94
2022-08-17T04:33:04.150Z,96287.97
2022-08-17T04:35:10.103Z,96295.72
2022-08-17T04:37:36.645Z,96294.31
2022-08-17T04:40:22.623Z,96309.28
2022-08-17T04:43:24.810Z,96312.25
2022-08-17T04:45:57.752Z,96296.97
2022-08-17T04:48:50.764Z,96304.88
2022-08-17T04:51:23.361Z,96302.47
2022-08-17T04:53:54.278Z,96309.56
2022-08-17T04:56:23.240Z,96318.22
2022-08-17T04:58:51.581Z,96315.41
2022-08-17T05:01:23.563Z,96307.16
2022-08-17T05:03:56.258Z,96292.28
2022-08-17T05:06:23.620Z,96303.97
2022-08-17T05:08:50.149Z,96314.00
2022-08-17T05:11:16.555Z,96313.91
2022-08-17T05:13:43.434Z,96316.53
2022-08-17T05:16:10.683Z,96325.03
2022-08-17T05:18:38.764Z,96315.59
2022-08-17T05:21:05.831Z,96310.22
2022-08-17T05:23:42.070Z,96310.22
2022-08-17T05:26:26.225Z,96301.34
2022-08-17T05:28:59.523Z,96310.03
2022-08-17T05:31:28.719Z,96301.34
2022-08-17T05:33:55.317Z,96303.22
2022-08-17T05:36:37.920Z,96306.31
2022-08-17T05:39:08.421Z,96306.94
2022-08-17T05:41:42.375Z,96309.94
2022-08-17T05:44:08.857Z,96305.47
2022-08-17T05:46:41.726Z,96306.22
2022-08-17T05:49:08.538Z,96296.75
2022-08-17T05:51:50.202Z,96299.38
2022-08-17T05:54:33.052Z,96305.34
2022-08-17T05:57:26.919Z,96310.81
2022-08-17T06:00:05.639Z,96311.22
2022-08-17T06:03:00.396Z,96300.41
2022-08-17T06:05:36.024Z,96299.06
2022-08-17T06:08:25.879Z,96300.28
2022-08-17T06:10:58.865Z,96304.38
2022-08-17T06:13:56.151Z,96301.09
2022-08-17T06:16:34.462Z,96305.41
2022-08-17T06:19:14.151Z,96299.47
2022-08-17T06:21:45.298Z,96310.44
2022-08-17T06:24:47.044Z,96309.19
2022-08-17T06:27:22.453Z,96307.03
2022-08-17T06:30:09.104Z,96318.34
2022-08-17T06:32:44.323Z,96312.75
2022-08-17T06:35:15.286Z,96309.13
2022-08-17T06:38:37.178Z,96308.47
2022-08-17T06:41:15.188Z,96317.47
2022-08-17T06:43:59.628Z,96316.53
2022-08-17T06:46:37.736Z,96316.34
2022-08-17T06:49:25.151Z,96315.34
2022-08-17T06:52:02.255Z,96319.63
2022-08-17T06:54:45.630Z,96312.63
2022-08-17T06:57:22.160Z,96307.63
2022-08-17T07:00:02.375Z,96313.34
2022-08-17T07:03:01.122Z,96320.69
2022-08-17T07:05:36.608Z,96319.06
2022-08-17T07:08:20.374Z,96326.41
2022-08-17T07:10:55.042Z,96331.13
2022-08-17T07:13:44.581Z,96330.59
2022-08-17T07:16:32.447Z,96333.44
2022-08-17T07:18:59.825Z,96332.91
2022-08-17T07:21:38.598Z,96342.75
2022-08-17T07:24:45.088Z,96348.34
2022-08-17T07:27:18.142Z,96351.41
2022-08-17T07:29:56.547Z,96351.97
2022-08-17T07:32:35.086Z,96345.34
2022-08-17T07:35:11.642Z,96342.28
2022-08-17T07:37:54.397Z,96345.44
2022-08-17T07:40:28.565Z,96341.81
2022-08-17T07:43:06.942Z,96345.66
2022-08-17T07:45:54.017Z,96355.06
2022-08-17T07:48:24.444Z,96356.28
2022-08-17T07:50:53.175Z,96362.34
2022-08-17T07:53:23.279Z,96363.69
2022-08-17T07:55:51.778Z,96349.88
2022-08-17T07:58:22.287Z,96356.78
2022-08-17T08:01:09.564Z,96354.53
2022-08-17T08:03:42.129Z,96355.44
2022-08-17T08:06:24.472Z,96364.81
2022-08-17T08:08:54.966Z,96362.41
2022-08-17T08:11:40.151Z,96366.63
2022-08-17T08:14:29.586Z,96369.34
2022-08-17T08:17:04.823Z,96359.72
2022-08-17T08:19:32.905Z,96363.81
2022-08-17T08:22:10.791Z,96355.47
2022-08-17T08:24:37.217Z,96357.47
2022-08-17T08:27:30.438Z,96357.59
2022-08-17T08:30:03.924Z,96344.16
2022-08-17T08:32:47.970Z,96337.63
2022-08-17T08:35:23.709Z,96345.97
2022-08-17T08:38:12.354Z,96351.91
2022-08-17T08:41:17.858Z,96354.72
2022-08-17T08:44:22.061Z,96358.13
2022-08-17T08:47:23.540Z,96343.34
2022-08-17T08:50:40.318Z,96345.19
2022-08-17T08:53:15.411Z,96337.16
2022-08-17T08:56:00.934Z,96339.09
2022-08-17T08:58:42.119Z,96346.25
2022-08-17T09:01:45.225Z,96337.75
2022-08-17T09:04:26.170Z,96341.47
2022-08-17T09:07:23.065Z,96331.94
2022-08-17T09:10:15.621Z,96324.22
2022-08-17T09:12:51.641Z,96305.91
2022-08-17T09:15:20.646Z,96322.28
2022-08-17T09:18:28.526Z,96316.84
2022-08-17T09:20:50.246Z,96321.72
2022-08-17T09:23:33.144Z,96324.53
2022-08-17T09:26:05.542Z,96322.72
2022-08-17T09:28:37.844Z,96314.38
2022-08-17T09:31:11.161Z,96310.84
2022-08-17T09:33:44.228Z,96327.63
2022-08-17T09:36:29.351Z,96318.00
2022-08-17T09:39:02.058Z,96303.47
2022-08-17T09:41:36.068Z,96323.75
2022-08-17T09:44:14.019Z,96320.94
2022-08-17T09:47:00.184Z,96324.94
2022-08-17T09:49:30.692Z,96331.03
2022-08-17T09:52:07.416Z,96333.53
2022-08-17T09:54:39.308Z,96328.19
2022-08-17T09:57:32.208Z,96333.88
2022-08-17T10:00:10.820Z,96329.38
2022-08-17T10:02:57.192Z,96315.00
2022-08-17T10:05:37.715Z,96312.25
2022-08-17T10:08:22.929Z,96307.59
2022-08-17T10:11:18.936Z,96307.28
2022-08-17T10:14:35.943Z,96305.53
2022-08-17T10:17:20.481Z,96301.16
2022-08-17T10:20:20.491Z,96305.84
2022-08-17T10:23:09.966Z,96296.03
2022-08-17T10:26:01.148Z,96289.91
2022-08-17T10:28:39.470Z,96296.13
2022-08-17T10:34:10.874Z,96295.75
2022-08-17T10:36:55.947Z,96292.25
2022-08-17T10:39:52.589Z,96290.31
2022-08-17T10:42:42.632Z,96282.16
2022-08-17T10:45:36.684Z,96292.66
2022-08-17T10:48:07.086Z,96299.97
2022-08-17T10:50:55.571Z,96297.69
2022-08-17T10:53:31.103Z,96299.59
2022-08-17T10:56:12.667Z,96308.94
2022-08-17T10:58:55.951Z,96305.84
2022-08-17T11:01:34.735Z,96313.22
2022-08-17T11:04:17.589Z,96315.16
2022-08-17T11:06:47.562Z,96313.56
2022-08-17T11:09:44.769Z,96311.66
2022-08-17T11:12:25.573Z,96308.88
2022-08-17T11:15:00.901Z,96315.84
2022-08-17T11:18:12.100Z,96317.44
2022-08-17T11:21:09.806Z,96315.09
2022-08-17T11:23:44.976Z,96315.19
2022-08-17T11:26:26.806Z,96319.81
2022-08-17T11:29:03.613Z,96313.22
2022-08-17T11:31:39.156Z,96318.69
2022-08-17T11:34:26.343Z,96296.53
2022-08-17T11:37:02.064Z,96312.03
2022-08-17T11:39:56.395Z,96306.19
2022-08-17T11:42:58.117Z,96303.44
2022-08-17T11:45:43.545Z,96298.41
2022-08-17T11:48:43.598Z,96299.50
2022-08-17T11:51:27.483Z,96299.81
2022-08-17T11:54:08.738Z,96285.91
2022-08-17T11:56:49.739Z,96290.00
2022-08-17T11:59:39.195Z,96296.25
2022-08-17T12:02:35.003Z,96291.69
2022-08-17T12:05:03.626Z,96299.34
2022-08-17T12:07:33.143Z,96298.41
2022-08-17T12:10:01.058Z,96303.06
2022-08-17T12:12:33.317Z,96298.19
2022-08-17T12:15:11.002Z,96298.59
2022-08-17T12:17:40.939Z,96297.81
2022-08-17T12:20:14.726Z,96301.19
2022-08-17T12:23:10.631Z,96307.53
2022-08-17T12:26:11.783Z,96309.97
2022-08-17T12:28:44.334Z,96305.66
2022-08-17T12:31:23.157Z,96306.94
2022-08-17T12:33:51.687Z,96304.19
2022-08-17T12:36:24.780Z,96293.69
2022-08-17T12:39:13.944Z,96293.31
2022-08-17T12:41:46.888Z,96292.84
2022-08-17T12:44:18.361Z,96297.88
2022-08-17T12:46:53.347Z,96283.59
2022-08-17T12:49:27.404Z,96284.84
2022-08-17T12:52:01.364Z,96290.59
2022-08-17T12:54:39.283Z,96292.53
2022-08-17T12:57:12.579Z,96297.66
2022-08-17T12:59:47.289Z,96296.13
2022-08-17T13:02:27.629Z,96287.19
2022-08-17T13:04:57.182Z,96280.81
2022-08-17T13:07:44.729Z,96288.72
2022-08-17T13:10:33.366Z,96287.16
2022-08-17T13:13:05.912Z,96275.50
2022-08-17T13:15:44.450Z,96273.19
2022-08-17T13:18:36.243Z,96279.16
2022-08-17T13:21:02.887Z,96272.56
2022-08-17T13:23:31.331Z,96275.22
2022-08-17T13:26:06.134Z,96269.16
2022-08-17T13:28:36.586Z,96273.97
2022-08-17T13:31:21.263Z,96264.19
2022-08-17T13:33:47.845Z,96263.41
2022-08-17T13:36:30.207Z,96264.31
2022-08-17T13:39:23.037Z,96255.34
2022-08-17T13:41:52.419Z,96261.84
2022-08-17T13:44:37.659Z,96255.69
2022-08-17T13:47:14.999Z,96253.47
2022-08-17T13:49:48.925Z,96256.19
2022-08-17T13:52:38.895Z,96257.41
2022-08-17T13:55:18.946Z,96253.47
2022-08-17T13:57:47.939Z,96248.56
2022-08-17T14:00:36.307Z,96236.91
2022-08-17T14:03:04.954Z,96237.09
2022-08-17T14:05:32.011Z,96232.47
2022-08-17T14:08:02.367Z,96232.88
2022-08-17T14:10:35.823Z,96228.13
2022-08-17T14:13:02.735Z,96234.34
2022-08-17T14:15:54.644Z,96243.34
2022-08-17T14:18:17.970Z,96242.16
2022-08-17T14:21:02.247Z,96239.06
2022-08-17T14:23:31.827Z,96239.06
2022-08-17T14:25:58.449Z,96230.53
2022-08-17T14:28:24.941Z,96231.69
2022-08-17T14:30:55.427Z,96218.91
2022-08-17T14:33:22.690Z,96219.28
2022-08-17T14:35:53.472Z,96224.72
2022-08-17T14:38:20.908Z,96218.09
2022-08-17T14:40:49.151Z,96214.63
2022-08-17T14:43:15.874Z,96211.53
2022-08-17T14:45:43.281Z,96212.25
2022-08-17T14:48:10.869Z,96206.50
2022-08-17T14:50:41.048Z,96206.06
2022-08-17T14:53:15.161Z,96188.91
2022-08-17T14:55:42.030Z,96177.22
2022-08-17T14:58:09.101Z,96180.13
2022-08-17T15:00:36.287Z,96178.72
2022-08-17T15:03:03.461Z,96188.31
2022-08-17T15:05:34.461Z,96187.31
2022-08-17T15:08:02.593Z,96187.47
2022-08-17T15:10:30.624Z,96181.09
2022-08-17T15:12:57.709Z,96187.41
2022-08-17T15:15:25.005Z,96175.91
2022-08-17T15:17:51.628Z,96172.69
2022-08-17T15:20:24.798Z,96172.06
2022-08-17T15:22:55.339Z,96195.78
2022-08-17T15:25:22.677Z,96189.75
2022-08-17T15:27:49.431Z,96190.13
2022-08-17T15:30:16.376Z,96188.88
2022-08-17T15:32:50.577Z,96208.69
2022-08-17T15:35:19.366Z,96204.47
2022-08-17T15:37:53.844Z,96209.56
2022-08-17T15:40:20.407Z,96212.25
2022-08-17T15:42:46.956Z,96216.94
2022-08-17T15:45:14.215Z,96215.78
2022-08-17T15:47:40.762Z,96214.13
2022-08-17T15:50:08.727Z,96211.88
2022-08-17T15:52:40.573Z,96206.75
2022-08-17T15:55:12.028Z,96209.84
2022-08-17T15:57:38.845Z,96211.09
2022-08-17T16:00:07.766Z,96204.41
2022-08-17T16:03:22.921Z,96200.56
2022-08-17T16:05:28.507Z,96222.66
2022-08-17T16:07:58.558Z,96215.66
2022-08-17T16:10:35.425Z,96212.97
2022-08-17T16:13:03.981Z,96219.16
2022-08-17T16:15:33.549Z,96212.53
2022-08-17T16:18:00.075Z,96216.47
2022-08-17T16:20:27.604Z,96211.72
2022-08-17T16:22:54.801Z,96219.88
2022-08-17T16:25:49.205Z,96217.09
2022-08-17T16:28:12.222Z,96205.59
2022-08-17T16:30:38.920Z,96186.28
2022-08-17T16:33:06.090Z,96204.00
2022-08-17T16:35:33.492Z,96206.72
2022-08-17T16:38:00.012Z,96197.06
2022-08-17T16:40:29.531Z,96199.44
2022-08-17T16:42:57.916Z,96195.41
2022-08-17T16:45:36.264Z,96200.13
2022-08-17T16:48:03.032Z,96192.22
2022-08-17T16:50:29.568Z,96198.75
2022-08-17T16:53:06.937Z,96193.91
2022-08-17T16:55:35.630Z,96186.03
2022-08-17T16:58:08.683Z,96190.56
2022-08-17T17:00:36.554Z,96194.44
2022-08-17T17:03:21.554Z,96191.19
2022-08-17T17:05:55.091Z,96202.09
2022-08-17T17:08:30.203Z,96210.28
2022-08-17T17:10:59.725Z,96197.03
2022-08-17T17:13:43.721Z,96204.41
2022-08-17T17:16:21.831Z,96204.47
2022-08-17T17:18:58.030Z,96203.06
2022-08-17T17:21:32.790Z,96196.66
2022-08-17T17:24:06.093Z,96198.25
2022-08-17T17:26:43.962Z,96205.56
2022-08-17T17:29:22.534Z,96214.53
2022-08-17T17:32:09.362Z,96196.03
2022-08-17T17:34:37.888Z,96188.59
2022-08-17T17:37:14.775Z,96196.75
2022-08-17T17:39:46.076Z,96198.41
2022-08-17T17:42:17.449Z,96193.84
2022-08-17T17:44:59.301Z,96195.72
2022-08-17T17:47:26.672Z,96189.44
2022-08-17T17:49:53.185Z,96186.94
2022-08-17T17:52:47.871Z,96186.78
2022-08-17T17:55:44.065Z,96182.72
2022-08-17T17:58:38.516Z,96185.84
2022-08-17T18:01:26.972Z,96183.56
2022-08-17T18:04:17.689Z,96185.44
2022-08-17T18:06:53.699Z,96189.66
2022-08-17T18:09:51.844Z,96192.69
2022-08-17T18:12:46.453Z,96193.22
2022-08-17T18:15:29.878Z,96186.13
2022-08-17T18:18:02.240Z,96184.94
2022-08-17T18:20:32.465Z,96178.22
2022-08-17T18:23:10.107Z,96182.88
2022-08-17T18:25:44.807Z,96187.28
2022-08-17T18:28:23.467Z,96192.03
2022-08-17T18:31:10.449Z,96186.59
2022-08-17T18:33:42.687Z,96188.63
2022-08-17T18:36:11.368Z,96205.22
2022-08-17T18:38:37.900Z,96178.00
2022-08-17T18:41:18.091Z,96186.19
2022-08-17T18:43:57.206Z,96182.78
2022-08-17T18:46:36.495Z,96184.19
2022-08-17T18:49:26.011Z,96191.16
2022-08-17T18:52:15.872Z,96192.44
2022-08-17T18:55:14.188Z,96185.13
2022-08-17T18:57:44.202Z,96181.88
2022-08-17T19:00:16.941Z,96189.44
2022-08-17T19:03:22.806Z,96191.69
2022-08-17T19:05:54.350Z,96188.50
2022-08-17T19:08:32.613Z,96194.03
2022-08-17T19:11:04.262Z,96194.88
2022-08-17T19:13:51.439Z,96201.91
2022-08-17T19:16:41.805Z,96194.28
2022-08-17T19:19:23.260Z,96199.81
2022-08-17T19:21:55.381Z,96198.81
2022-08-17T19:24:24.929Z,96206.75
2022-08-17T19:27:13.734Z,96210.28
2022-08-17T19:29:46.531Z,96199.06
2022-08-17T19:32:16.666Z,96187.41
2022-08-17T19:34:44.626Z,96178.44
2022-08-17T19:37:20.911Z,96186.47
2022-08-17T19:40:06.226Z,96181.31
2022-08-17T19:42:51.550Z,96166.00
2022-08-17T19:45:42.127Z,96174.38
2022-08-17T19:48:16.521Z,96175.19
2022-08-17T19:51:06.185Z,96182.34
2022-08-17T19:54:07.297Z,96177.53
2022-08-17T19:57:09.075Z,96179.19
2022-08-17T19:59:49.364Z,96184.84
2022-08-17T20:02:34.854Z,96187.09
2022-08-17T20:05:13.432Z,96192.81
2022-08-17T20:08:05.096Z,96194.16
2022-08-17T20:10:54.378Z,96199.16
2022-08-17T20:13:38.651Z,96201.22
2022-08-17T20:16:06.383Z,96207.88
2022-08-17T20:18:44.059Z,96220.16
2022-08-17T20:21:30.597Z,96233.81
2022-08-17T20:24:05.409Z,96225.88
2022-08-17T20:26:57.870Z,96230.00
2022-08-17T20:30:10.365Z,96234.72
2022-08-17T20:32:51.819Z,96232.53
2022-08-17T20:35:37.272Z,96219.41
2022-08-17T20:38:07.415Z,96225.22
2022-08-17T20:40:38.932Z,96204.88
2022-08-17T20:43:33.739Z,96199.81
2022-08-17T20:46:17.096Z,96192.09
2022-08-17T20:48:47.242Z,96197.06
2022-08-17T20:51:19.083Z,96181.78
2022-08-17T20:53:53.482Z,96178.56
2022-08-17T20:56:44.755Z,96193.34
2022-08-17T20:59:25.439Z,96183.25
2022-08-17T21:02:17.594Z,96186.31
2022-08-17T21:04:51.303Z,96184.31
2022-08-17T21:07:43.580Z,96190.91
2022-08-17T21:10:17.887Z,96187.19
2022-08-17T21:12:48.486Z,96191.31
2022-08-17T21:15:31.033Z,96182.56
2022-08-17T21:18:11.899Z,96176.91
2022-08-17T21:20:59.278Z,96187.66
2022-08-17T21:23:56.096Z,96193.72
2022-08-17T21:27:10.421Z,96194.38
2022-08-17T21:30:11.787Z,96196.28
2022-08-17T21:32:42.106Z,96194.19
2022-08-17T21:35:23.586Z,96203.34
2022-08-17T21:37:53.256Z,96202.56
2022-08-17T21:40:29.056Z,96209.28
2022-08-17T21:43:23.765Z,96204.38
2022-08-17T21:46:12.363Z,96209.50
2022-08-17T21:48:48.063Z,96214.31
2022-08-17T21:51:22.761Z,96215.66
2022-08-17T21:53:53.145Z,96221.03
2022-08-17T21:56:24.525Z,96228.06
2022-08-17T21:58:59.386Z,96235.09
2022-08-17T22:02:55.666Z,96232.28
2022-08-17T22:05:31.535Z,96240.13
2022-08-17T22:08:04.028Z,96245.88
2022-08-17T22:10:41.318Z,96252.38
2022-08-17T22:13:17.103Z,96252.56
2022-08-17T22:16:27.931Z,96258.84
2022-08-17T22:18:57.944Z,96247.25
2022-08-17T22:21:25.255Z,96256.09
2022-08-17T22:24:15.801Z,96245.84
2022-08-17T22:26:59.477Z,96260.50
2022-08-17T22:30:05.058Z,96258.88
2022-08-17T22:32:34.427Z,96262.44
2022-08-17T22:35:18.612Z,96274.59
2022-08-17T22:37:45.338Z,96279.84
2022-08-17T22:40:24.953Z,96305.13
2022-08-17T22:42:51.765Z,96312.78
2022-08-17T22:45:18.464Z,96314.56
2022-08-17T22:47:48.836Z,96331.03
2022-08-17T22:50:25.785Z,96345.78
2022-08-17T22:53:35.477Z,96345.13
2022-08-17T22:56:21.039Z,96344.19
2022-08-17T22:59:15.432Z,96349.53
2022-08-17T23:01:45.237Z,96357.16
2022-08-17T23:04:31.967Z,96347.72
2022-08-17T23:06:58.453Z,96344.44
2022-08-17T23:09:24.945Z,96343.06
2022-08-17T23:11:56.458Z,96353.03
2022-08-17T23:14:23.114Z,96354.28
2022-08-17T23:16:50.963Z,96358.88
2022-08-17T23:19:20.811Z,96383.28
2022-08-17T23:21:49.125Z,96397.44
2022-08-17T23:24:21.605Z,96391.94
2022-08-17T23:26:48.315Z,96399.94
2022-08-17T23:29:14.883Z,96406.84
2022-08-17T23:31:41.520Z,96402.19
2022-08-17T23:34:13.499Z,96396.69
2022-08-17T23:36:40.354Z,96408.84
2022-08-17T23:39:07.472Z,96413.09
2022-08-17T23:41:39.883Z,96409.31
2022-08-17T23:44:07.536Z,96426.06
2022-08-17T23:46:34.733Z,96426.03
2022-08-17T23:49:01.502Z,96457.81
2022-08-17T23:51:33.430Z,96468.66
2022-08-17T23:54:12.477Z,96489.31
2022-08-17T23:56:46.602Z,96504.94
2022-08-17T23:59:22.495Z,96505.72
